Time;durP1;ratioP1;P1;durP2;ratioP2;P2;SDS_P1;SDS_P2;PMS_P1;PMS_P2;Temp;Humidity;BMP_temperature;BMP_pressure;BME280_temperature;BME280_humidity;BME280_pressure;Samples;Min_cycle;Max_cycle;Signal;HPM_P1;HPM_P2
2021/07/24 00:01:59;;;;;;;;;24.00;22.00;;;;;25.24;48.49;98734.63;6140463;28;96692;-61
2021/07/24 00:05:05;;;;;;;;;23.00;21.75;;;;;25.25;48.11;98728.78;6134171;28;97121;-60
2021/07/24 00:08:09;;;;;;;;;22.00;21.20;;;;;25.21;48.66;98722.28;6133825;28;98411;-61
2021/07/24 00:11:12;;;;;;;;;23.20;21.80;;;;;25.16;48.74;98721.63;6131319;28;97552;-61
2021/07/24 00:14:15;;;;;;;;;20.60;18.60;;;;;25.13;48.94;98725.00;6151634;28;96572;-61
2021/07/24 00:17:19;;;;;;;;;25.00;23.00;;;;;24.99;49.32;98720.44;6144018;28;96571;-61
2021/07/24 00:20:24;;;;;;;;;26.20;23.00;;;;;24.87;49.75;98711.97;6127810;28;97678;-61
2021/07/24 00:23:27;;;;;;;;;23.40;22.00;;;;;24.79;49.98;98709.94;6105679;28;98611;-61
2021/07/24 00:26:31;;;;;;;;;22.75;21.25;;;;;24.72;50.14;98714.31;6100756;28;100638;-61
2021/07/24 00:29:34;;;;;;;;;23.00;22.00;;;;;24.57;50.55;98716.38;6145372;28;97568;-60
2021/07/24 00:32:37;;;;;;;;;24.75;22.00;;;;;24.47;50.66;98713.06;6146289;28;97601;-61
2021/07/24 00:35:42;;;;;;;;;25.40;23.00;;;;;24.42;50.76;98704.94;6135480;28;96384;-61
2021/07/24 00:38:45;;;;;;;;;24.00;21.00;;;;;24.37;50.78;98708.66;6142760;28;98184;-61
2021/07/24 00:41:52;;;;;;;;;25.50;24.25;;;;;24.32;50.81;98700.50;6141339;28;97579;-61
2021/07/24 00:45:03;;;;;;;;;25.50;21.00;;;;;24.31;50.88;98709.09;6128539;28;97779;-60
2021/07/24 00:48:08;;;;;;;;;25.00;23.60;;;;;24.24;50.88;98708.72;6136659;28;96740;-60
2021/07/24 00:51:29;;;;;;;;;27.00;24.00;;;;;24.13;51.57;98702.63;6133236;28;97421;-61
2021/07/24 00:54:36;;;;;;;;;23.50;22.00;;;;;24.05;51.29;98700.63;6129721;28;97123;-61
2021/07/24 00:57:44;;;;;;;;;25.75;23.00;;;;;23.97;51.85;98704.97;6130922;28;97077;-62
2021/07/24 01:00:50;;;;;;;;;24.75;23.50;;;;;23.96;51.77;98706.09;6126580;28;96988;-61
2021/07/24 01:03:54;;;;;;;;;24.00;22.00;;;;;23.88;52.15;98706.03;6130608;28;97268;-61
2021/07/24 01:07:04;;;;;;;;;25.00;23.00;;;;;23.84;52.11;98696.78;6134350;28;97515;-61
2021/07/24 01:10:09;;;;;;;;;25.60;21.60;;;;;23.82;51.94;98696.25;6144550;28;96496;-61
2021/07/24 01:13:28;;;;;;;;;23.75;22.00;;;;;23.87;51.87;98690.63;6128042;28;96656;-61
2021/07/24 01:16:32;;;;;;;;;27.60;24.60;;;;;23.92;51.84;98690.50;6115198;28;100341;-60
2021/07/24 01:19:51;;;;;;;;;26.00;24.00;;;;;24.00;51.95;98693.31;6132516;28;96703;-61
2021/07/24 01:22:57;;;;;;;;;26.00;23.40;;;;;24.05;51.75;98689.59;6098670;28;98815;-61
2021/07/24 01:26:01;;;;;;;;;27.20;25.40;;;;;24.04;51.89;98688.00;6131717;28;97510;-60
2021/07/24 01:29:14;;;;;;;;;26.20;24.60;;;;;24.06;51.75;98694.00;6129007;28;96556;-61
2021/07/24 01:32:18;;;;;;;;;27.00;25.00;;;;;24.04;51.80;98691.53;6132425;28;97903;-61
2021/07/24 01:35:23;;;;;;;;;26.00;23.00;;;;;24.07;52.02;98688.19;6137218;28;97557;-61
2021/07/24 01:38:30;;;;;;;;;29.00;26.40;;;;;24.10;52.16;98684.78;6150205;28;97267;-61
2021/07/24 01:41:44;;;;;;;;;24.00;23.00;;;;;24.05;52.39;98679.41;6125438;28;97467;-61
2021/07/24 01:44:48;;;;;;;;;26.60;23.60;;;;;24.11;52.12;98680.91;6148008;28;97105;-61
2021/07/24 01:47:54;;;;;;;;;27.60;25.60;;;;;23.90;52.02;98652.25;6107188;28;96846;-62
2021/07/24 01:54:25;;;;;;;;;24.80;24.00;;;;;24.03;51.78;98670.66;6128460;28;97636;-62
2021/07/24 01:57:33;;;;;;;;;24.40;23.20;;;;;23.98;51.69;98668.03;6139473;28;97058;-61
2021/07/24 02:00:39;;;;;;;;;25.00;22.60;;;;;23.97;52.00;98668.34;6130773;28;97087;-62
2021/07/24 02:04:10;;;;;;;;;25.00;23.00;;;;;23.89;52.00;98667.19;6108654;28;98649;-61
2021/07/24 02:07:22;;;;;;;;;26.25;26.00;;;;;23.92;51.96;98674.81;6136738;28;97506;-61
2021/07/24 02:10:31;;;;;;;;;26.40;24.00;;;;;23.89;52.11;98667.19;6118524;28;97621;-61
2021/07/24 02:13:38;;;;;;;;;25.40;23.40;;;;;23.88;51.81;98670.22;6123334;28;97489;-61
2021/07/24 02:16:42;;;;;;;;;27.00;25.00;;;;;23.86;52.14;98659.53;6121061;28;96683;-61
2021/07/24 02:19:49;;;;;;;;;24.33;22.33;;;;;23.85;51.70;98659.88;6132974;28;97276;-61
2021/07/24 02:22:55;;;;;;;;;23.50;21.50;;;;;23.89;51.81;98658.09;6105030;28;99431;-61
2021/07/24 02:26:02;;;;;;;;;25.20;23.00;;;;;23.86;51.68;98655.97;6140303;28;99164;-61
2021/07/24 02:29:06;;;;;;;;;27.80;25.40;;;;;23.84;51.54;98656.28;6117464;28;97397;-61
2021/07/24 02:32:09;;;;;;;;;24.00;21.00;;;;;23.84;51.50;98660.97;6129569;28;97543;-61
2021/07/24 02:35:14;;;;;;;;;23.80;22.00;;;;;23.82;51.83;98653.03;6130882;28;97279;-61
2021/07/24 02:38:40;;;;;;;;;23.20;21.20;;;;;23.83;51.13;98660.16;6133508;28;97559;-61
2021/07/24 02:41:45;;;;;;;;;22.00;20.00;;;;;23.81;51.53;98664.34;6140956;28;96632;-61
2021/07/24 02:44:49;;;;;;;;;22.80;21.00;;;;;23.80;51.36;98671.00;6118272;28;97272;-60
2021/07/24 02:47:53;;;;;;;;;24.00;23.50;;;;;23.82;51.17;98672.31;6131647;28;97333;-61
2021/07/24 02:50:56;;;;;;;;;28.00;24.00;;;;;23.79;51.58;98678.44;6133845;28;97179;-60
2021/07/24 02:53:59;;;;;;;;;25.20;23.00;;;;;23.75;51.34;98675.47;6122651;28;99285;-61
2021/07/24 02:57:06;;;;;;;;;27.40;25.00;;;;;23.72;51.45;98678.88;6107141;28;97321;-61
2021/07/24 03:00:10;;;;;;;;;31.00;27.00;;;;;23.70;51.52;98683.06;6119395;28;96990;-61
2021/07/24 03:03:14;;;;;;;;;28.00;25.00;;;;;23.63;51.79;98686.25;6138675;28;97416;-61
2021/07/24 03:06:18;;;;;;;;;24.00;23.00;;;;;23.51;51.53;98685.97;6123065;28;97365;-61
2021/07/24 03:09:22;;;;;;;;;24.00;23.20;;;;;23.41;51.60;98697.19;6148130;28;96662;-61
2021/07/24 03:12:26;;;;;;;;;25.80;25.20;;;;;23.27;51.41;98694.47;6135904;28;97455;-61
2021/07/24 03:15:29;;;;;;;;;25.40;23.40;;;;;23.17;51.51;98696.63;6131798;28;97427;-61
2021/07/24 03:18:33;;;;;;;;;22.50;20.75;;;;;23.06;51.99;98687.00;6111467;28;98415;-60
2021/07/24 03:21:36;;;;;;;;;27.00;24.00;;;;;23.01;52.31;98700.84;6124490;28;97513;-61
2021/07/24 03:24:40;;;;;;;;;22.50;21.00;;;;;22.97;52.29;98695.13;6132790;28;96795;-61
2021/07/24 03:27:44;;;;;;;;;24.00;22.60;;;;;22.92;52.61;98695.22;6120851;28;98559;-62
2021/07/24 03:30:49;;;;;;;;;26.00;24.25;;;;;22.94;52.61;98700.44;6130259;28;96966;-60
2021/07/24 03:33:53;;;;;;;;;25.00;23.20;;;;;22.96;52.55;98699.03;6132341;28;97421;-61
2021/07/24 03:36:56;;;;;;;;;25.75;24.00;;;;;22.98;52.70;98696.75;6132505;28;98171;-62
2021/07/24 03:39:59;;;;;;;;;27.20;24.00;;;;;22.95;52.77;98693.81;6136174;28;97632;-61
2021/07/24 03:43:04;;;;;;;;;25.00;23.40;;;;;22.96;52.97;98696.28;6148001;28;97349;-61
2021/07/24 03:46:13;;;;;;;;;25.25;22.25;;;;;22.98;52.65;98690.44;6128080;28;96701;-61
2021/07/24 03:49:17;;;;;;;;;22.00;20.00;;;;;22.89;53.17;98693.94;6119905;28;98721;-61
2021/07/24 03:52:20;;;;;;;;;23.00;22.00;;;;;22.84;53.35;98688.53;6125002;28;98669;-61
2021/07/24 03:55:23;;;;;;;;;23.60;22.00;;;;;22.78;53.26;98692.50;6153993;28;96625;-62
2021/07/24 03:58:28;;;;;;;;;25.20;23.60;;;;;22.83;53.46;98689.66;6145098;28;97137;-61
2021/07/24 04:01:32;;;;;;;;;26.40;24.40;;;;;22.89;53.46;98695.84;6147330;28;97459;-61
2021/07/24 04:04:36;;;;;;;;;23.25;22.25;;;;;22.98;53.33;98698.69;6112471;28;97484;-61
2021/07/24 04:07:41;;;;;;;;;23.00;21.80;;;;;23.07;52.86;98707.84;6148018;28;96976;-62
2021/07/24 04:10:45;;;;;;;;;25.00;23.00;;;;;23.16;53.02;98701.34;6146330;28;96520;-61
2021/07/24 04:13:50;;;;;;;;;24.00;22.00;;;;;23.24;53.11;98705.28;6113137;28;97200;-62
2021/07/24 04:16:54;;;;;;;;;27.00;24.00;;;;;23.35;52.62;98703.94;6137429;28;97612;-62
2021/07/24 04:19:57;;;;;;;;;25.80;24.80;;;;;23.47;52.52;98704.25;6113598;28;98690;-61
2021/07/24 04:23:00;;;;;;;;;23.40;22.40;;;;;23.58;52.80;98702.88;6125244;28;98997;-62
2021/07/24 04:26:04;;;;;;;;;25.60;23.40;;;;;23.70;52.34;98685.81;6128370;28;98467;-62
2021/07/24 04:29:09;;;;;;;;;23.40;22.40;;;;;23.84;52.01;98694.84;6089409;28;99586;-62
2021/07/24 04:32:12;;;;;;;;;26.00;22.00;;;;;23.92;52.09;98702.34;6149632;28;96638;-61
2021/07/24 04:35:15;;;;;;;;;27.00;23.40;;;;;23.97;51.77;98695.88;6116358;28;96782;-61
2021/07/24 04:38:19;;;;;;;;;23.60;22.00;;;;;23.94;51.57;98688.25;6136452;28;97141;-61
2021/07/24 04:41:24;;;;;;;;;24.00;23.50;;;;;23.96;51.55;98691.50;6137055;28;97464;-61
2021/07/24 04:44:29;;;;;;;;;21.00;21.00;;;;;23.95;51.60;98690.69;6135285;28;96910;-61
2021/07/24 04:47:33;;;;;;;;;25.00;23.50;;;;;23.98;51.54;98689.25;6142406;28;96909;-61
2021/07/24 04:50:43;;;;;;;;;25.00;23.00;;;;;24.03;51.40;98691.88;6127142;28;97465;-62
2021/07/24 04:53:48;;;;;;;;;23.00;21.00;;;;;24.10;51.49;98689.47;6143379;28;96873;-61
2021/07/24 04:56:52;;;;;;;;;28.40;24.40;;;;;24.14;51.08;98685.78;6154863;28;96692;-62
2021/07/24 04:59:57;;;;;;;;;26.00;24.00;;;;;24.24;51.14;98689.44;6137204;28;97373;-61
2021/07/24 05:03:00;;;;;;;;;28.00;25.40;;;;;24.28;51.27;98685.75;6150257;28;97002;-61
2021/07/24 05:06:05;;;;;;;;;23.75;23.00;;;;;24.34;51.26;98684.47;6128138;28;96892;-62
2021/07/24 05:09:08;;;;;;;;;25.00;24.33;;;;;24.50;51.35;98687.63;6141606;28;96691;-62
2021/07/24 05:12:13;;;;;;;;;25.00;23.60;;;;;24.63;51.14;98692.22;6144381;28;96873;-62
2021/07/24 05:15:18;;;;;;;;;28.00;24.00;;;;;24.92;51.27;98686.19;6127306;28;97524;-62
2021/07/24 05:18:21;;;;;;;;;30.00;28.00;;;;;25.10;50.70;98690.63;6131769;28;96719;-61
2021/07/24 05:21:24;;;;;;;;;26.40;24.80;;;;;25.28;50.69;98680.41;6123286;28;97545;-61
2021/07/24 05:24:27;;;;;;;;;27.25;26.00;;;;;25.47;50.16;98680.91;6105880;28;97451;-62
2021/07/24 05:27:31;;;;;;;;;29.25;26.50;;;;;25.64;49.59;98685.66;6114383;28;97485;-62
2021/07/24 05:30:35;;;;;;;;;27.00;24.00;;;;;25.87;49.17;98681.56;6137470;28;97500;-62
2021/07/24 05:33:39;;;;;;;;;24.00;22.00;;;;;26.01;49.16;98678.63;6135265;28;97224;-62
2021/07/24 05:36:42;;;;;;;;;30.80;26.40;;;;;26.17;48.43;98685.25;6147250;28;97519;-62
2021/07/24 05:39:45;;;;;;;;;22.40;22.00;;;;;26.29;48.11;98688.19;6145822;28;97409;-61
2021/07/24 05:42:49;;;;;;;;;28.00;24.40;;;;;26.44;47.95;98687.63;6132778;28;97329;-61
2021/07/24 05:45:53;;;;;;;;;28.80;24.80;;;;;26.61;47.24;98681.25;6108314;28;96742;-62
2021/07/24 05:48:57;;;;;;;;;25.40;23.40;;;;;26.77;47.17;98690.63;6139105;28;97310;-62
2021/07/24 05:52:01;;;;;;;;;27.20;26.40;;;;;26.94;46.65;98686.97;6124267;28;97506;-62
2021/07/24 05:55:05;;;;;;;;;23.00;22.00;;;;;27.02;46.68;98683.38;6125571;28;97508;-61
2021/07/24 05:58:10;;;;;;;;;24.80;24.20;;;;;27.21;46.07;98693.97;6138122;28;98244;-62
2021/07/24 06:01:15;;;;;;;;;28.00;27.00;;;;;27.35;46.01;98700.88;6134869;28;97469;-61
2021/07/24 06:04:18;;;;;;;;;29.00;27.00;;;;;27.48;46.18;98688.72;6130539;28;97524;-62
2021/07/24 06:07:21;;;;;;;;;29.00;26.00;;;;;27.44;45.17;98687.78;6135620;28;97649;-61
2021/07/24 06:10:25;;;;;;;;;32.00;28.80;;;;;27.33;45.10;98681.03;6134899;28;97457;-62
2021/07/24 06:13:29;;;;;;;;;30.75;27.75;;;;;27.30;45.13;98695.53;6137385;28;97462;-62
2021/07/24 06:16:38;;;;;;;;;27.60;25.60;;;;;27.34;45.27;98681.84;6131159;28;97171;-62
2021/07/24 06:19:41;;;;;;;;;28.80;26.20;;;;;27.48;44.93;98690.69;6103299;28;97578;-62
2021/07/24 06:22:44;;;;;;;;;25.80;23.80;;;;;27.65;44.13;98693.34;6127171;28;97262;-61
2021/07/24 06:25:49;;;;;;;;;33.60;26.00;;;;;27.82;44.14;98684.88;6133655;28;97412;-61
2021/07/24 06:28:52;;;;;;;;;33.00;29.00;;;;;27.98;44.18;98685.06;6122573;28;97735;-61
2021/07/24 06:31:57;;;;;;;;;33.00;29.60;;;;;28.07;43.02;98682.19;6131335;28;96879;-61
2021/07/24 06:35:00;;;;;;;;;26.80;25.00;;;;;28.12;43.94;98684.78;6126461;28;97691;-62
2021/07/24 06:38:03;;;;;;;;;29.00;24.00;;;;;28.29;43.27;98676.31;6106450;28;97121;-62
2021/07/24 06:41:07;;;;;;;;;27.00;26.00;;;;;28.38;42.96;98680.59;6129603;28;97067;-62
2021/07/24 06:44:15;;;;;;;;;25.00;23.50;;;;;28.55;42.77;98687.06;6132217;28;97541;-62
2021/07/24 06:47:19;;;;;;;;;32.40;30.00;;;;;28.65;42.19;98686.63;6130533;28;97435;-61
2021/07/24 06:50:23;;;;;;;;;29.00;25.00;;;;;28.70;42.23;98686.41;6133704;28;97661;-61
2021/07/24 06:53:27;;;;;;;;;29.60;26.40;;;;;28.78;41.94;98680.75;6136024;28;96625;-62
2021/07/24 06:56:33;;;;;;;;;27.00;25.75;;;;;28.87;42.21;98654.88;6137095;28;97022;-61
2021/07/24 06:59:37;;;;;;;;;25.00;23.00;;;;;29.18;42.80;98683.63;6133601;28;97605;-61
2021/07/24 07:02:41;;;;;;;;;22.33;21.33;;;;;29.39;41.56;98683.53;6112383;28;97241;-62
2021/07/24 07:05:45;;;;;;;;;26.00;25.00;;;;;29.62;41.22;98686.56;6116354;28;96657;-62
2021/07/24 07:08:48;;;;;;;;;25.00;24.20;;;;;29.83;40.67;98681.66;6127057;28;97049;-62
2021/07/24 07:11:52;;;;;;;;;23.20;22.60;;;;;29.85;40.31;98670.19;6137102;28;97426;-62
2021/07/24 07:14:55;;;;;;;;;25.40;23.40;;;;;29.83;39.58;98683.63;6134280;28;97590;-61
2021/07/24 07:18:00;;;;;;;;;24.40;23.00;;;;;29.81;39.22;98686.75;6134199;28;97038;-62
2021/07/24 07:21:04;;;;;;;;;29.00;26.50;;;;;29.88;39.46;98686.16;6135862;28;97441;-62
2021/07/24 07:24:07;;;;;;;;;29.00;23.60;;;;;29.90;39.07;98683.88;6118913;28;96647;-61
2021/07/24 07:27:10;;;;;;;;;23.75;22.25;;;;;29.90;38.71;98687.47;6127500;28;97482;-62
2021/07/24 07:30:14;;;;;;;;;23.75;21.50;;;;;29.92;38.98;98675.97;6130286;28;97460;-61
2021/07/24 07:33:20;;;;;;;;;23.60;20.60;;;;;30.21;38.63;98681.16;6128312;28;97843;-62
2021/07/24 07:36:23;;;;;;;;;24.00;21.60;;;;;30.39;38.31;98682.44;6132940;28;96746;-62
2021/07/24 07:39:27;;;;;;;;;24.00;22.00;;;;;30.68;38.83;98688.78;6119470;28;97594;-62
2021/07/24 07:42:30;;;;;;;;;20.80;20.20;;;;;30.98;38.26;98693.50;6114605;28;97523;-62
2021/07/24 07:45:34;;;;;;;;;22.80;20.00;;;;;31.30;37.41;98691.50;6126049;28;96954;-62
2021/07/24 07:48:39;;;;;;;;;21.00;20.00;;;;;31.60;37.29;98697.38;6124343;28;96685;-61
2021/07/24 07:51:43;;;;;;;;;22.00;19.00;;;;;31.77;35.78;98696.94;6131794;28;97238;-62
2021/07/24 07:54:48;;;;;;;;;18.75;18.00;;;;;31.95;36.01;98693.72;6123776;28;97564;-62
2021/07/24 07:57:51;;;;;;;;;19.60;19.00;;;;;31.90;35.27;98696.78;6133103;28;97434;-62
2021/07/24 08:00:56;;;;;;;;;21.00;19.50;;;;;32.04;35.73;98697.09;6116353;28;97473;-61
2021/07/24 08:04:01;;;;;;;;;20.75;19.25;;;;;32.27;36.70;98691.56;6136308;28;97619;-61
2021/07/24 08:07:04;;;;;;;;;26.00;22.00;;;;;32.26;35.75;98685.19;6110084;28;97306;-61
2021/07/24 08:10:10;;;;;;;;;22.00;20.20;;;;;32.31;36.31;98693.25;6132111;28;97413;-60
2021/07/24 08:13:14;;;;;;;;;21.40;20.00;;;;;32.51;35.99;98688.44;6126861;28;98049;-61
2021/07/24 08:16:17;;;;;;;;;22.50;21.50;;;;;32.74;35.18;98685.69;6129309;28;96864;-61
2021/07/24 08:19:22;;;;;;;;;23.00;21.25;;;;;33.00;35.38;98680.91;6130432;28;97471;-61
2021/07/24 08:22:26;;;;;;;;;24.40;22.00;;;;;33.23;35.23;98672.53;6135542;28;97655;-61
2021/07/24 08:25:29;;;;;;;;;22.00;20.00;;;;;33.41;34.04;98669.97;6130235;28;96436;-61
2021/07/24 08:28:32;;;;;;;;;19.40;18.20;;;;;33.59;33.54;98679.41;6126247;28;97132;-61
2021/07/24 08:31:36;;;;;;;;;19.00;19.00;;;;;33.78;33.28;98681.25;6120415;28;97422;-61
2021/07/24 08:34:40;;;;;;;;;19.50;19.00;;;;;33.97;32.17;98683.91;6123546;28;97559;-61
2021/07/24 08:37:44;;;;;;;;;20.00;20.00;;;;;34.10;32.38;98673.25;6133495;28;96852;-61
2021/07/24 08:40:48;;;;;;;;;20.00;19.00;;;;;34.25;32.23;98661.88;6129657;28;97101;-61
2021/07/24 08:43:51;;;;;;;;;18.00;16.20;;;;;34.46;31.46;98674.44;6121442;28;96969;-61
2021/07/24 08:46:55;;;;;;;;;17.20;15.20;;;;;34.54;31.32;98673.34;6118219;28;98516;-60
2021/07/24 08:50:00;;;;;;;;;16.00;15.00;;;;;34.72;31.67;98668.72;6125419;28;97122;-62
2021/07/24 08:53:06;;;;;;;;;16.40;15.00;;;;;34.88;31.44;98665.66;6131353;28;97097;-61
2021/07/24 08:56:16;;;;;;;;;15.50;15.50;;;;;34.97;29.81;98672.53;6137904;28;97525;-61
2021/07/24 08:59:21;;;;;;;;;16.00;15.00;;;;;35.04;30.84;98669.78;6126008;28;96388;-62
2021/07/24 09:02:28;;;;;;;;;18.00;17.00;;;;;35.20;30.96;98667.53;6131034;28;97426;-62
2021/07/24 09:05:39;;;;;;;;;16.60;15.60;;;;;35.34;30.53;98675.22;6135186;28;96726;-61
2021/07/24 09:08:43;;;;;;;;;18.60;16.00;;;;;35.23;29.49;98665.16;6127998;28;96585;-60
2021/07/24 09:11:46;;;;;;;;;18.00;17.00;;;;;35.30;30.66;98670.78;6128242;28;96985;-60
2021/07/24 09:14:51;;;;;;;;;18.00;17.00;;;;;35.35;30.09;98660.00;6136420;28;97389;-60
2021/07/24 09:17:54;;;;;;;;;17.00;16.00;;;;;35.37;30.49;98654.81;6139941;28;97920;-61
2021/07/24 09:20:59;;;;;;;;;16.20;15.80;;;;;35.65;31.33;98654.16;6131449;28;97440;-60
2021/07/24 09:24:18;;;;;;;;;16.40;16.00;;;;;35.98;30.96;98658.69;6140622;28;97699;-61
2021/07/24 09:27:24;;;;;;;;;19.00;16.60;;;;;35.68;28.94;98652.59;6129672;28;97010;-61
2021/07/24 09:30:32;;;;;;;;;18.00;17.75;;;;;35.72;30.24;98647.81;6130755;28;96728;-61
2021/07/24 09:33:36;;;;;;;;;19.20;19.20;;;;;35.60;29.03;98644.13;6125399;28;97378;-61
2021/07/24 09:36:42;;;;;;;;;17.00;17.00;;;;;35.64;29.63;98646.94;6139028;28;97220;-61
2021/07/24 09:39:46;;;;;;;;;17.50;17.00;;;;;35.77;30.68;98644.63;6131004;28;97757;-61
2021/07/24 09:42:49;;;;;;;;;20.80;19.20;;;;;36.01;30.79;98644.72;6118610;28;98610;-60
2021/07/24 09:46:08;;;;;;;;;21.40;17.40;;;;;36.26;29.93;98650.41;6125537;28;97097;-61
2021/07/24 09:49:15;;;;;;;;;17.00;17.00;;;;;36.55;27.29;98644.81;6133288;28;97313;-61
2021/07/24 09:52:21;;;;;;;;;16.00;15.00;;;;;36.45;27.50;98644.41;6130863;28;97643;-61
2021/07/24 09:55:28;;;;;;;;;15.80;15.00;;;;;36.46;27.36;98634.75;6132582;28;96777;-61
2021/07/24 09:58:32;;;;;;;;;18.00;17.00;;;;;36.69;28.45;98626.00;6127549;28;96772;-61
2021/07/24 10:01:35;;;;;;;;;17.60;15.60;;;;;36.76;28.86;98627.97;6127058;28;97621;-61
2021/07/24 10:04:41;;;;;;;;;18.20;17.20;;;;;36.94;28.32;98623.16;6134356;28;98247;-61
2021/07/24 10:08:09;;;;;;;;;18.80;17.20;;;;;37.19;28.15;98625.97;6128658;28;96700;-61
2021/07/24 10:11:14;;;;;;;;;21.40;20.00;;;;;37.36;27.77;98624.28;6139709;28;97464;-61
2021/07/24 10:14:18;;;;;;;;;16.25;15.00;;;;;37.28;25.30;98615.88;6139645;28;96423;-60
2021/07/24 10:17:21;;;;;;;;;22.00;19.00;;;;;37.11;26.55;98613.09;6129873;28;96759;-61
2021/07/24 10:20:25;;;;;;;;;17.40;16.40;;;;;36.95;25.38;98610.69;6098097;28;96570;-61
2021/07/24 10:23:29;;;;;;;;;16.20;16.00;;;;;36.51;25.35;98608.28;6106592;28;96780;-60
2021/07/24 10:26:34;;;;;;;;;18.75;16.00;;;;;36.69;27.08;98611.13;6112027;28;98092;-61
2021/07/24 10:29:45;;;;;;;;;17.00;16.00;;;;;36.94;25.23;98603.50;6108778;28;96561;-61
2021/07/24 10:32:54;;;;;;;;;17.00;16.00;;;;;36.94;24.96;98600.69;6093734;28;99267;-61
2021/07/24 10:36:12;;;;;;;;;19.00;18.00;;;;;36.86;25.72;98593.44;6095968;28;97499;-60
2021/07/24 10:39:21;;;;;;;;;14.75;13.00;;;;;36.80;27.15;98593.06;6101922;28;96671;-61
2021/07/24 10:42:38;;;;;;;;;15.00;14.00;;;;;36.73;27.17;98601.50;6086099;28;96379;-61
2021/07/24 10:45:56;;;;;;;;;18.00;18.00;;;;;36.81;25.24;98603.09;6105666;28;97962;-60
2021/07/24 10:49:00;;;;;;;;;17.00;17.00;;;;;36.73;24.93;98601.50;6109399;28;96783;-62
2021/07/24 10:52:06;;;;;;;;;17.00;17.00;;;;;36.57;24.29;98592.66;6101895;28;96588;-61
2021/07/24 10:55:19;;;;;;;;;14.25;14.00;;;;;36.68;25.49;98590.69;6115155;28;96481;-60
2021/07/24 10:58:26;;;;;;;;;14.00;13.00;;;;;36.78;24.21;98597.50;6110452;28;96730;-60
2021/07/24 11:01:45;;;;;;;;;15.20;14.80;;;;;36.96;25.39;98598.25;6114004;28;97461;-60
2021/07/24 11:04:51;;;;;;;;;17.00;15.60;;;;;36.79;24.44;98596.28;6075878;28;97778;-61
2021/07/24 11:07:54;;;;;;;;;17.60;16.40;;;;;36.59;24.54;98593.06;6113363;28;97523;-62
2021/07/24 11:11:10;;;;;;;;;15.25;14.00;;;;;36.95;26.25;98588.22;6114755;28;97491;-61
2021/07/24 11:14:49;;;;;;;;;17.00;15.60;;;;;37.46;25.78;98598.94;6114605;28;97519;-61
2021/07/24 11:18:23;;;;;;;;;16.00;15.40;;;;;37.62;24.20;98590.06;6119349;28;97246;-60
2021/07/24 11:22:00;;;;;;;;;17.40;15.40;;;;;37.76;25.49;98592.81;6134727;28;97879;-61
2021/07/24 11:25:32;;;;;;;;;15.00;14.00;;;;;37.88;24.62;98591.53;6137557;28;97527;-61
2021/07/24 11:28:47;;;;;;;;;17.00;16.00;;;;;38.00;26.10;98591.91;6131760;28;97582;-61
2021/07/24 11:31:52;;;;;;;;;18.00;16.00;;;;;38.26;24.55;98586.91;6135901;28;97534;-61
2021/07/24 11:34:58;;;;;;;;;15.40;13.20;;;;;38.40;23.99;98576.31;6133088;28;97727;-62
2021/07/24 11:38:02;;;;;;;;;16.60;15.60;;;;;38.18;24.05;98580.50;6137995;28;96535;-61
2021/07/24 11:41:08;;;;;;;;;16.00;15.40;;;;;38.25;25.67;98577.66;6130475;28;97035;-61
2021/07/24 11:44:12;;;;;;;;;15.00;15.00;;;;;38.21;24.45;98582.50;6136968;28;98014;-61
2021/07/24 11:47:16;;;;;;;;;17.00;16.00;;;;;38.28;23.46;98587.28;6126537;28;96782;-60
2021/07/24 11:50:22;;;;;;;;;14.00;14.00;;;;;38.41;22.81;98579.94;6126093;28;96531;-61
2021/07/24 11:53:25;;;;;;;;;16.40;15.00;;;;;38.17;23.36;98583.75;6137768;28;98128;-61
2021/07/24 11:56:29;;;;;;;;;15.60;14.60;;;;;37.76;25.24;98587.19;6134802;28;97502;-61
2021/07/24 11:59:36;;;;;;;;;15.40;14.40;;;;;37.60;25.51;98579.22;6124477;28;96647;-61
2021/07/24 12:02:39;;;;;;;;;16.00;14.00;;;;;37.47;24.09;98572.44;6128304;28;97427;-61
2021/07/24 12:05:43;;;;;;;;;16.67;15.00;;;;;37.28;25.71;98572.91;6141108;28;97506;-61
2021/07/24 12:08:50;;;;;;;;;14.40;14.40;;;;;37.13;24.38;98566.53;6141932;28;97490;-60
2021/07/24 12:11:55;;;;;;;;;14.80;13.80;;;;;37.12;24.75;98562.13;6142008;28;97395;-61
2021/07/24 12:15:05;;;;;;;;;16.20;15.80;;;;;36.94;24.16;98575.41;6142059;28;97449;-61
2021/07/24 12:18:19;;;;;;;;;15.00;14.00;;;;;36.42;25.20;98557.34;6122301;28;97359;-61
2021/07/24 12:21:24;;;;;;;;;14.20;13.80;;;;;36.19;26.06;98571.78;6091508;28;97050;-60
2021/07/24 12:24:27;;;;;;;;;15.20;15.00;;;;;36.00;25.38;98561.72;6117525;28;96623;-63
2021/07/24 12:27:30;;;;;;;;;14.20;13.20;;;;;35.86;27.54;98564.50;6118079;28;98865;-60
2021/07/24 12:30:35;;;;;;;;;15.00;14.00;;;;;35.71;26.69;98560.06;6100328;28;96868;-62
2021/07/24 12:33:46;;;;;;;;;16.00;15.00;;;;;35.63;26.40;98558.38;6090370;28;99253;-61
2021/07/24 12:36:51;;;;;;;;;16.00;14.40;;;;;35.69;26.44;98562.44;6101260;28;98102;-62
2021/07/24 12:39:54;;;;;;;;;15.00;15.00;;;;;35.60;26.85;98543.16;6108128;28;96698;-62
2021/07/24 12:43:10;;;;;;;;;16.50;15.00;;;;;35.56;26.66;98550.78;6099297;28;99541;-61
2021/07/24 12:46:18;;;;;;;;;15.00;13.75;;;;;35.52;26.82;98549.97;6115748;28;96430;-62
2021/07/24 12:49:35;;;;;;;;;17.00;16.00;;;;;35.78;27.35;98551.66;6100087;28;96616;-62
2021/07/24 12:52:44;;;;;;;;;15.00;15.00;;;;;36.03;25.59;98552.50;6104621;28;96658;-61
2021/07/24 12:55:53;;;;;;;;;15.75;14.75;;;;;36.10;25.63;98548.91;6103144;28;97461;-60
2021/07/24 12:58:56;;;;;;;;;17.00;16.00;;;;;35.99;25.91;98545.28;6091552;28;98622;-61
2021/07/24 13:02:01;;;;;;;;;15.00;14.00;;;;;36.16;26.42;98544.53;6112851;28;96749;-62
2021/07/24 13:05:05;;;;;;;;;16.00;15.00;;;;;36.39;26.08;98541.31;6115333;28;96893;-62
2021/07/24 13:08:10;;;;;;;;;15.60;15.20;;;;;36.48;25.15;98538.91;6114900;28;97460;-61
2021/07/24 13:11:14;;;;;;;;;15.60;15.00;;;;;36.38;24.69;98534.91;6114012;28;96592;-61
2021/07/24 13:14:17;;;;;;;;;15.00;14.00;;;;;36.23;26.32;98538.09;6112871;28;96731;-61
2021/07/24 13:17:23;;;;;;;;;16.00;15.00;;;;;36.21;25.70;98534.91;6117985;28;97420;-62
2021/07/24 13:20:29;;;;;;;;;14.00;14.00;;;;;36.32;25.90;98536.50;6133909;28;97332;-61
2021/07/24 13:23:32;;;;;;;;;14.20;13.20;;;;;36.57;25.83;98536.47;6128546;28;96694;-61
2021/07/24 13:29:59;;;;;;;;;17.40;14.40;;;;;37.02;25.17;98529.19;6140474;28;96622;-61
2021/07/24 13:33:04;;;;;;;;;17.75;17.00;;;;;37.13;24.07;98523.56;6139068;28;97449;-61
2021/07/24 13:36:08;;;;;;;;;15.00;14.00;;;;;36.71;24.48;98521.63;6138800;28;97512;-61
2021/07/24 13:39:11;;;;;;;;;14.00;13.00;;;;;36.59;25.50;98530.47;6137616;28;97607;-62
2021/07/24 13:42:15;;;;;;;;;14.80;14.40;;;;;36.68;26.31;98517.66;6130524;28;97357;-62
2021/07/24 13:45:18;;;;;;;;;14.00;13.00;;;;;36.62;25.32;98526.88;6140107;28;96900;-62
2021/07/24 13:48:23;;;;;;;;;13.25;13.00;;;;;36.51;25.13;98518.44;6136237;28;97568;-61
2021/07/24 13:51:27;;;;;;;;;17.00;16.40;;;;;36.45;24.64;98523.69;6133847;28;97709;-62
2021/07/24 13:54:31;;;;;;;;;16.25;14.50;;;;;36.19;24.48;98524.06;6139833;28;96732;-62
2021/07/24 13:57:36;;;;;;;;;14.00;14.00;;;;;35.85;25.41;98525.63;6137835;28;97836;-62
2021/07/24 14:00:40;;;;;;;;;14.00;14.00;;;;;35.87;25.60;98520.44;6137063;28;97675;-61
2021/07/24 14:03:44;;;;;;;;;14.00;13.00;;;;;36.00;26.87;98516.81;6115712;28;98452;-62
2021/07/24 14:06:48;;;;;;;;;14.60;13.00;;;;;36.21;26.59;98518.06;6134726;28;97496;-62
2021/07/24 14:09:51;;;;;;;;;15.60;14.00;;;;;36.32;25.63;98518.84;6134708;28;97523;-62
2021/07/24 14:12:55;;;;;;;;;13.40;13.00;;;;;36.14;25.25;98529.28;6139704;28;97014;-61
2021/07/24 14:15:58;;;;;;;;;15.00;14.00;;;;;35.96;24.80;98530.06;6138607;28;97069;-62
2021/07/24 14:19:03;;;;;;;;;15.00;15.00;;;;;35.89;25.93;98530.03;6129692;28;96730;-62
2021/07/24 14:22:07;;;;;;;;;16.00;15.00;;;;;35.98;26.09;98524.03;6131245;28;97155;-62